sensor_id;sensor_type;location;lat;lon;timestamp;temperature;humidity
22456;DHT22;11395;53.204;6.502;2022-08-02T00:05:32;23.70;71.80
22456;DHT22;11395;53.204;6.502;2022-08-02T00:07:58;23.60;72.70
22456;DHT22;11395;53.204;6.502;2022-08-02T00:10:24;23.60;72.90
22456;DHT22;11395;53.204;6.502;2022-08-02T00:12:50;23.60;72.90
22456;DHT22;11395;53.204;6.502;2022-08-02T00:15:17;23.60;73.00
22456;DHT22;11395;53.204;6.502;2022-08-02T00:17:43;23.60;72.90
22456;DHT22;11395;53.204;6.502;2022-08-02T00:20:10;23.60;72.80
22456;DHT22;11395;53.204;6.502;2022-08-02T00:22:37;23.60;72.70
22456;DHT22;11395;53.204;6.502;2022-08-02T00:25:04;23.60;72.80
22456;DHT22;11395;53.204;6.502;2022-08-02T00:27:30;23.60;72.70
22456;DHT22;11395;53.204;6.502;2022-08-02T00:29:56;23.60;72.70
22456;DHT22;11395;53.204;6.502;2022-08-02T00:32:22;23.60;72.60
22456;DHT22;11395;53.204;6.502;2022-08-02T00:34:49;23.60;72.60
22456;DHT22;11395;53.204;6.502;2022-08-02T00:37:15;23.60;72.70
22456;DHT22;11395;53.204;6.502;2022-08-02T00:39:42;23.60;72.60
22456;DHT22;11395;53.204;6.502;2022-08-02T00:42:08;23.60;72.70
22456;DHT22;11395;53.204;6.502;2022-08-02T00:44:35;23.60;72.60
22456;DHT22;11395;53.204;6.502;2022-08-02T00:47:01;23.60;72.70
22456;DHT22;11395;53.204;6.502;2022-08-02T00:49:27;23.60;72.60
22456;DHT22;11395;53.204;6.502;2022-08-02T00:51:53;23.50;72.60
22456;DHT22;11395;53.204;6.502;2022-08-02T00:54:20;23.50;72.60
22456;DHT22;11395;53.204;6.502;2022-08-02T00:56:46;23.50;72.60
22456;DHT22;11395;53.204;6.502;2022-08-02T00:59:12;23.50;72.60
22456;DHT22;11395;53.204;6.502;2022-08-02T01:05:32;23.40;72.00
22456;DHT22;11395;53.204;6.502;2022-08-02T01:07:58;23.40;73.70
22456;DHT22;11395;53.204;6.502;2022-08-02T01:10:27;23.30;73.00
22456;DHT22;11395;53.204;6.502;2022-08-02T01:12:53;23.30;73.10
22456;DHT22;11395;53.204;6.502;2022-08-02T01:15:20;23.30;73.10
22456;DHT22;11395;53.204;6.502;2022-08-02T01:17:51;23.30;73.10
22456;DHT22;11395;53.204;6.502;2022-08-02T01:25:56;23.30;72.80
22456;DHT22;11395;53.204;6.502;2022-08-02T01:28:45;23.30;73.10
22456;DHT22;11395;53.204;6.502;2022-08-02T01:34:05;23.30;72.80
22456;DHT22;11395;53.204;6.502;2022-08-02T01:36:42;23.30;72.90
22456;DHT22;11395;53.204;6.502;2022-08-02T01:39:11;23.30;72.80
22456;DHT22;11395;53.204;6.502;2022-08-02T01:41:40;23.30;72.90
22456;DHT22;11395;53.204;6.502;2022-08-02T01:44:09;23.30;72.80
22456;DHT22;11395;53.204;6.502;2022-08-02T01:46:38;23.20;72.70
22456;DHT22;11395;53.204;6.502;2022-08-02T01:49:08;23.20;72.70
22456;DHT22;11395;53.204;6.502;2022-08-02T01:51:36;23.20;72.70
22456;DHT22;11395;53.204;6.502;2022-08-02T01:54:23;23.20;72.70
22456;DHT22;11395;53.204;6.502;2022-08-02T01:56:53;23.20;72.80
22456;DHT22;11395;53.204;6.502;2022-08-02T01:59:20;23.20;72.70
22456;DHT22;11395;53.204;6.502;2022-08-02T02:01:50;23.20;72.70
22456;DHT22;11395;53.204;6.502;2022-08-02T02:04:19;23.20;72.70
22456;DHT22;11395;53.204;6.502;2022-08-02T02:06:46;23.20;72.70
22456;DHT22;11395;53.204;6.502;2022-08-02T02:09:15;23.20;72.70
22456;DHT22;11395;53.204;6.502;2022-08-02T02:11:46;23.20;72.70
22456;DHT22;11395;53.204;6.502;2022-08-02T02:14:14;23.20;72.70
22456;DHT22;11395;53.204;6.502;2022-08-02T02:16:43;23.10;72.70
22456;DHT22;11395;53.204;6.502;2022-08-02T02:19:12;23.20;72.70
22456;DHT22;11395;53.204;6.502;2022-08-02T02:21:41;23.10;72.70
22456;DHT22;11395;53.204;6.502;2022-08-02T02:24:07;23.10;72.80
22456;DHT22;11395;53.204;6.502;2022-08-02T02:26:35;23.10;72.70
22456;DHT22;11395;53.204;6.502;2022-08-02T02:29:03;23.10;72.70
22456;DHT22;11395;53.204;6.502;2022-08-02T02:31:35;23.10;72.80
22456;DHT22;11395;53.204;6.502;2022-08-02T02:34:18;23.10;72.70
22456;DHT22;11395;53.204;6.502;2022-08-02T02:36:50;23.10;72.80
22456;DHT22;11395;53.204;6.502;2022-08-02T02:39:20;23.10;72.70
22456;DHT22;11395;53.204;6.502;2022-08-02T02:41:48;23.00;72.70
22456;DHT22;11395;53.204;6.502;2022-08-02T02:44:18;23.00;72.70
22456;DHT22;11395;53.204;6.502;2022-08-02T02:46:48;23.00;72.80
22456;DHT22;11395;53.204;6.502;2022-08-02T02:49:17;23.00;72.80
22456;DHT22;11395;53.204;6.502;2022-08-02T02:51:44;23.00;72.80
22456;DHT22;11395;53.204;6.502;2022-08-02T02:54:11;23.00;72.80
22456;DHT22;11395;53.204;6.502;2022-08-02T02:56:40;22.90;72.80
22456;DHT22;11395;53.204;6.502;2022-08-02T02:59:07;22.90;72.80
22456;DHT22;11395;53.204;6.502;2022-08-02T03:01:34;22.90;72.80
22456;DHT22;11395;53.204;6.502;2022-08-02T03:04:04;22.90;72.90
22456;DHT22;11395;53.204;6.502;2022-08-02T03:06:32;23.00;72.90
22456;DHT22;11395;53.204;6.502;2022-08-02T03:08:58;22.90;72.90
22456;DHT22;11395;53.204;6.502;2022-08-02T03:11:26;22.90;72.90
22456;DHT22;11395;53.204;6.502;2022-08-02T03:13:57;22.90;72.90
22456;DHT22;11395;53.204;6.502;2022-08-02T03:16:28;22.90;72.90
22456;DHT22;11395;53.204;6.502;2022-08-02T03:18:55;22.90;72.90
22456;DHT22;11395;53.204;6.502;2022-08-02T03:21:22;22.80;72.80
22456;DHT22;11395;53.204;6.502;2022-08-02T03:23:49;22.80;72.90
22456;DHT22;11395;53.204;6.502;2022-08-02T03:26:15;22.80;72.90
22456;DHT22;11395;53.204;6.502;2022-08-02T03:28:42;22.90;73.00
22456;DHT22;11395;53.204;6.502;2022-08-02T03:31:09;22.80;72.90
22456;DHT22;11395;53.204;6.502;2022-08-02T03:33:36;22.80;73.00
22456;DHT22;11395;53.204;6.502;2022-08-02T03:36:06;22.80;72.90
22456;DHT22;11395;53.204;6.502;2022-08-02T03:38:34;22.80;72.90
22456;DHT22;11395;53.204;6.502;2022-08-02T03:41:03;22.80;72.90
22456;DHT22;11395;53.204;6.502;2022-08-02T03:43:30;22.80;72.90
22456;DHT22;11395;53.204;6.502;2022-08-02T03:45:58;22.80;73.00
22456;DHT22;11395;53.204;6.502;2022-08-02T03:48:26;22.70;72.90
22456;DHT22;11395;53.204;6.502;2022-08-02T03:50:53;22.70;72.90
22456;DHT22;11395;53.204;6.502;2022-08-02T03:53:21;22.80;73.00
22456;DHT22;11395;53.204;6.502;2022-08-02T03:55:47;22.80;73.00
22456;DHT22;11395;53.204;6.502;2022-08-02T03:58:21;22.80;73.80
22456;DHT22;11395;53.204;6.502;2022-08-02T04:00:48;22.70;72.90
22456;DHT22;11395;53.204;6.502;2022-08-02T04:03:15;22.70;72.90
22456;DHT22;11395;53.204;6.502;2022-08-02T04:05:41;22.70;72.90
22456;DHT22;11395;53.204;6.502;2022-08-02T04:08:07;22.70;72.90
22456;DHT22;11395;53.204;6.502;2022-08-02T04:10:33;22.70;72.90
22456;DHT22;11395;53.204;6.502;2022-08-02T04:13:19;22.70;72.90
22456;DHT22;11395;53.204;6.502;2022-08-02T04:15:49;22.60;72.90
22456;DHT22;11395;53.204;6.502;2022-08-02T04:18:19;22.70;73.00
22456;DHT22;11395;53.204;6.502;2022-08-02T04:20:48;22.60;72.90
22456;DHT22;11395;53.204;6.502;2022-08-02T04:23:17;22.60;72.80
22456;DHT22;11395;53.204;6.502;2022-08-02T04:25:43;22.70;72.90
22456;DHT22;11395;53.204;6.502;2022-08-02T04:28:11;22.70;72.90
22456;DHT22;11395;53.204;6.502;2022-08-02T04:30:38;22.60;72.90
22456;DHT22;11395;53.204;6.502;2022-08-02T04:33:05;22.70;72.80
22456;DHT22;11395;53.204;6.502;2022-08-02T04:35:32;22.70;72.60
22456;DHT22;11395;53.204;6.502;2022-08-02T04:37:58;22.70;72.60
22456;DHT22;11395;53.204;6.502;2022-08-02T04:40:24;22.80;72.50
22456;DHT22;11395;53.204;6.502;2022-08-02T04:42:51;22.90;72.40
22456;DHT22;11395;53.204;6.502;2022-08-02T04:45:18;23.00;72.30
22456;DHT22;11395;53.204;6.502;2022-08-02T04:47:44;23.10;72.00
22456;DHT22;11395;53.204;6.502;2022-08-02T04:50:10;23.30;71.90
22456;DHT22;11395;53.204;6.502;2022-08-02T04:52:37;23.40;71.60
22456;DHT22;11395;53.204;6.502;2022-08-02T04:55:03;23.50;71.30
22456;DHT22;11395;53.204;6.502;2022-08-02T04:57:29;23.60;71.00
22456;DHT22;11395;53.204;6.502;2022-08-02T05:00:14;23.70;70.70
22456;DHT22;11395;53.204;6.502;2022-08-02T05:02:41;23.80;70.50
22456;DHT22;11395;53.204;6.502;2022-08-02T05:05:07;23.90;70.40
22456;DHT22;11395;53.204;6.502;2022-08-02T05:07:33;24.00;70.20
22456;DHT22;11395;53.204;6.502;2022-08-02T05:09:59;24.10;70.10
22456;DHT22;11395;53.204;6.502;2022-08-02T05:12:26;24.10;70.00
22456;DHT22;11395;53.204;6.502;2022-08-02T05:14:52;24.20;69.70
22456;DHT22;11395;53.204;6.502;2022-08-02T05:17:18;24.20;69.70
22456;DHT22;11395;53.204;6.502;2022-08-02T05:19:44;24.30;69.50
22456;DHT22;11395;53.204;6.502;2022-08-02T05:22:10;24.30;69.30
22456;DHT22;11395;53.204;6.502;2022-08-02T05:24:37;24.40;69.30
22456;DHT22;11395;53.204;6.502;2022-08-02T05:27:03;24.40;69.30
22456;DHT22;11395;53.204;6.502;2022-08-02T05:29:29;24.50;69.20
22456;DHT22;11395;53.204;6.502;2022-08-02T05:31:55;24.50;69.10
22456;DHT22;11395;53.204;6.502;2022-08-02T05:34:21;24.50;69.00
22456;DHT22;11395;53.204;6.502;2022-08-02T05:36:48;24.50;68.80
22456;DHT22;11395;53.204;6.502;2022-08-02T05:39:14;24.60;68.90
22456;DHT22;11395;53.204;6.502;2022-08-02T05:41:40;24.60;68.80
22456;DHT22;11395;53.204;6.502;2022-08-02T05:44:06;24.60;68.70
22456;DHT22;11395;53.204;6.502;2022-08-02T05:46:32;24.60;68.70
22456;DHT22;11395;53.204;6.502;2022-08-02T05:48:59;24.60;68.60
22456;DHT22;11395;53.204;6.502;2022-08-02T05:51:38;24.60;68.70
22456;DHT22;11395;53.204;6.502;2022-08-02T05:59:58;24.60;68.60
22456;DHT22;11395;53.204;6.502;2022-08-02T06:02:29;24.60;68.60
22456;DHT22;11395;53.204;6.502;2022-08-02T06:05:11;24.60;68.60
22456;DHT22;11395;53.204;6.502;2022-08-02T06:07:41;24.60;68.50
22456;DHT22;11395;53.204;6.502;2022-08-02T06:10:09;24.70;68.60
22456;DHT22;11395;53.204;6.502;2022-08-02T06:12:53;24.70;68.50
22456;DHT22;11395;53.204;6.502;2022-08-02T06:15:21;24.70;68.40
22456;DHT22;11395;53.204;6.502;2022-08-02T06:17:47;24.80;68.40
22456;DHT22;11395;53.204;6.502;2022-08-02T06:20:14;24.90;68.30
22456;DHT22;11395;53.204;6.502;2022-08-02T06:22:42;24.90;68.20
22456;DHT22;11395;53.204;6.502;2022-08-02T06:25:09;24.90;68.10
22456;DHT22;11395;53.204;6.502;2022-08-02T06:27:38;25.00;68.00
22456;DHT22;11395;53.204;6.502;2022-08-02T06:30:06;25.10;68.30
22456;DHT22;11395;53.204;6.502;2022-08-02T06:32:33;25.20;68.00
22456;DHT22;11395;53.204;6.502;2022-08-02T06:35:00;25.20;67.40
22456;DHT22;11395;53.204;6.502;2022-08-02T06:45:16;25.30;67.50
22456;DHT22;11395;53.204;6.502;2022-08-02T06:47:43;25.40;67.50
22456;DHT22;11395;53.204;6.502;2022-08-02T06:50:09;25.40;68.00
22456;DHT22;11395;53.204;6.502;2022-08-02T06:52:36;25.50;67.60
22456;DHT22;11395;53.204;6.502;2022-08-02T06:55:03;25.50;67.40
22456;DHT22;11395;53.204;6.502;2022-08-02T06:57:30;25.50;67.60
22456;DHT22;11395;53.204;6.502;2022-08-02T06:59:58;25.50;67.50
22456;DHT22;11395;53.204;6.502;2022-08-02T07:02:27;25.50;67.10
22456;DHT22;11395;53.204;6.502;2022-08-02T07:04:54;25.60;67.30
22456;DHT22;11395;53.204;6.502;2022-08-02T07:07:20;25.60;67.10
22456;DHT22;11395;53.204;6.502;2022-08-02T07:09:46;25.60;68.10
22456;DHT22;11395;53.204;6.502;2022-08-02T07:12:13;25.60;67.00
22456;DHT22;11395;53.204;6.502;2022-08-02T07:14:39;25.60;67.20
22456;DHT22;11395;53.204;6.502;2022-08-02T07:17:05;25.70;67.30
22456;DHT22;11395;53.204;6.502;2022-08-02T07:19:31;25.70;67.20
22456;DHT22;11395;53.204;6.502;2022-08-02T07:21:58;25.70;67.40
22456;DHT22;11395;53.204;6.502;2022-08-02T07:24:24;25.60;67.90
22456;DHT22;11395;53.204;6.502;2022-08-02T07:26:50;25.60;67.30
22456;DHT22;11395;53.204;6.502;2022-08-02T07:29:16;25.70;67.30
22456;DHT22;11395;53.204;6.502;2022-08-02T07:31:43;25.60;67.20
22456;DHT22;11395;53.204;6.502;2022-08-02T07:34:09;25.70;67.30
22456;DHT22;11395;53.204;6.502;2022-08-02T07:36:35;25.70;68.10
22456;DHT22;11395;53.204;6.502;2022-08-02T07:39:01;25.70;67.20
22456;DHT22;11395;53.204;6.502;2022-08-02T07:41:27;25.70;67.20
22456;DHT22;11395;53.204;6.502;2022-08-02T07:43:54;25.70;67.20
22456;DHT22;11395;53.204;6.502;2022-08-02T07:46:20;25.70;66.80
22456;DHT22;11395;53.204;6.502;2022-08-02T07:48:46;25.70;67.40
22456;DHT22;11395;53.204;6.502;2022-08-02T07:51:18;25.70;67.10
22456;DHT22;11395;53.204;6.502;2022-08-02T07:53:44;25.70;67.20
22456;DHT22;11395;53.204;6.502;2022-08-02T07:56:10;25.70;67.20
22456;DHT22;11395;53.204;6.502;2022-08-02T07:58:36;25.70;67.10
22456;DHT22;11395;53.204;6.502;2022-08-02T08:01:02;25.70;67.10
22456;DHT22;11395;53.204;6.502;2022-08-02T08:03:29;25.70;66.90
22456;DHT22;11395;53.204;6.502;2022-08-02T08:05:55;25.70;67.10
22456;DHT22;11395;53.204;6.502;2022-08-02T08:08:21;25.70;66.90
22456;DHT22;11395;53.204;6.502;2022-08-02T08:10:47;25.70;67.20
22456;DHT22;11395;53.204;6.502;2022-08-02T08:13:14;25.80;67.10
22456;DHT22;11395;53.204;6.502;2022-08-02T08:15:40;25.80;67.10
22456;DHT22;11395;53.204;6.502;2022-08-02T08:18:07;25.70;67.00
22456;DHT22;11395;53.204;6.502;2022-08-02T08:20:33;25.70;67.00
22456;DHT22;11395;53.204;6.502;2022-08-02T08:22:59;25.70;67.10
22456;DHT22;11395;53.204;6.502;2022-08-02T08:25:25;25.70;67.20
22456;DHT22;11395;53.204;6.502;2022-08-02T08:27:52;25.70;67.00
22456;DHT22;11395;53.204;6.502;2022-08-02T08:30:20;25.70;67.40
22456;DHT22;11395;53.204;6.502;2022-08-02T08:32:47;25.70;67.40
22456;DHT22;11395;53.204;6.502;2022-08-02T08:35:13;25.80;67.40
22456;DHT22;11395;53.204;6.502;2022-08-02T08:37:40;25.80;68.30
22456;DHT22;11395;53.204;6.502;2022-08-02T08:40:10;25.80;67.30
22456;DHT22;11395;53.204;6.502;2022-08-02T08:42:38;25.70;67.00
22456;DHT22;11395;53.204;6.502;2022-08-02T08:45:05;25.70;67.30
22456;DHT22;11395;53.204;6.502;2022-08-02T08:47:39;25.80;67.70
22456;DHT22;11395;53.204;6.502;2022-08-02T08:50:07;25.70;67.60
22456;DHT22;11395;53.204;6.502;2022-08-02T08:52:56;25.70;67.50
22456;DHT22;11395;53.204;6.502;2022-08-02T08:55:28;25.70;67.60
22456;DHT22;11395;53.204;6.502;2022-08-02T08:57:54;25.70;67.80
22456;DHT22;11395;53.204;6.502;2022-08-02T09:00:21;25.70;67.50
22456;DHT22;11395;53.204;6.502;2022-08-02T09:02:48;25.70;67.60
22456;DHT22;11395;53.204;6.502;2022-08-02T09:05:16;25.70;67.50
22456;DHT22;11395;53.204;6.502;2022-08-02T09:07:46;25.70;67.30
22456;DHT22;11395;53.204;6.502;2022-08-02T09:10:42;25.70;67.30
22456;DHT22;11395;53.204;6.502;2022-08-02T09:13:24;25.70;67.20
22456;DHT22;11395;53.204;6.502;2022-08-02T09:15:59;25.70;67.40
22456;DHT22;11395;53.204;6.502;2022-08-02T09:18:35;25.70;67.90
22456;DHT22;11395;53.204;6.502;2022-08-02T09:21:04;25.70;68.00
22456;DHT22;11395;53.204;6.502;2022-08-02T09:23:35;25.70;67.80
22456;DHT22;11395;53.204;6.502;2022-08-02T09:26:04;25.70;67.80
22456;DHT22;11395;53.204;6.502;2022-08-02T09:28:39;25.70;67.70
22456;DHT22;11395;53.204;6.502;2022-08-02T09:31:11;25.70;67.70
22456;DHT22;11395;53.204;6.502;2022-08-02T09:33:39;25.70;67.60
22456;DHT22;11395;53.204;6.502;2022-08-02T09:36:10;25.70;67.60
22456;DHT22;11395;53.204;6.502;2022-08-02T09:38:50;25.80;67.60
22456;DHT22;11395;53.204;6.502;2022-08-02T09:41:25;25.70;67.30
22456;DHT22;11395;53.204;6.502;2022-08-02T09:43:53;25.80;67.20
22456;DHT22;11395;53.204;6.502;2022-08-02T09:46:23;25.80;67.30
22456;DHT22;11395;53.204;6.502;2022-08-02T09:48:56;25.80;67.40
22456;DHT22;11395;53.204;6.502;2022-08-02T09:51:26;25.80;67.30
22456;DHT22;11395;53.204;6.502;2022-08-02T09:53:54;25.80;67.30
22456;DHT22;11395;53.204;6.502;2022-08-02T09:56:22;25.70;67.30
22456;DHT22;11395;53.204;6.502;2022-08-02T09:58:50;25.80;67.40
22456;DHT22;11395;53.204;6.502;2022-08-02T10:01:19;25.80;67.50
22456;DHT22;11395;53.204;6.502;2022-08-02T10:04:03;25.80;67.40
22456;DHT22;11395;53.204;6.502;2022-08-02T10:06:31;25.80;67.50
22456;DHT22;11395;53.204;6.502;2022-08-02T10:08:58;25.70;67.40
22456;DHT22;11395;53.204;6.502;2022-08-02T10:11:26;25.80;67.50
22456;DHT22;11395;53.204;6.502;2022-08-02T10:13:54;25.80;68.30
22456;DHT22;11395;53.204;6.502;2022-08-02T10:16:21;25.80;67.60
22456;DHT22;11395;53.204;6.502;2022-08-02T10:18:50;25.70;67.50
22456;DHT22;11395;53.204;6.502;2022-08-02T10:21:55;25.70;67.60
22456;DHT22;11395;53.204;6.502;2022-08-02T10:24:26;25.80;67.60
22456;DHT22;11395;53.204;6.502;2022-08-02T10:26:53;25.70;67.50
22456;DHT22;11395;53.204;6.502;2022-08-02T10:29:29;25.80;67.70
22456;DHT22;11395;53.204;6.502;2022-08-02T10:32:12;25.80;67.60
22456;DHT22;11395;53.204;6.502;2022-08-02T10:34:46;25.80;67.40
22456;DHT22;11395;53.204;6.502;2022-08-02T10:37:13;25.80;67.50
22456;DHT22;11395;53.204;6.502;2022-08-02T10:39:43;25.80;67.70
22456;DHT22;11395;53.204;6.502;2022-08-02T10:42:10;25.80;67.60
22456;DHT22;11395;53.204;6.502;2022-08-02T10:44:37;25.80;67.50
22456;DHT22;11395;53.204;6.502;2022-08-02T10:50:05;25.80;67.60
22456;DHT22;11395;53.204;6.502;2022-08-02T10:52:32;25.80;67.50
22456;DHT22;11395;53.204;6.502;2022-08-02T10:55:00;25.80;67.60
22456;DHT22;11395;53.204;6.502;2022-08-02T10:57:32;25.70;67.60
22456;DHT22;11395;53.204;6.502;2022-08-02T11:00:09;25.70;67.60
22456;DHT22;11395;53.204;6.502;2022-08-02T11:02:38;25.80;67.70
22456;DHT22;11395;53.204;6.502;2022-08-02T11:07:41;25.80;67.60
22456;DHT22;11395;53.204;6.502;2022-08-02T11:10:30;25.80;67.70
22456;DHT22;11395;53.204;6.502;2022-08-02T11:15:50;25.70;67.80
22456;DHT22;11395;53.204;6.502;2022-08-02T11:18:18;25.70;67.80
22456;DHT22;11395;53.204;6.502;2022-08-02T11:20:45;25.70;67.90
22456;DHT22;11395;53.204;6.502;2022-08-02T11:23:34;25.80;68.00
22456;DHT22;11395;53.204;6.502;2022-08-02T11:26:02;25.80;67.90
22456;DHT22;11395;53.204;6.502;2022-08-02T11:28:48;25.80;67.90
22456;DHT22;11395;53.204;6.502;2022-08-02T11:31:14;25.80;67.80
22456;DHT22;11395;53.204;6.502;2022-08-02T11:33:41;25.80;67.80
22456;DHT22;11395;53.204;6.502;2022-08-02T11:36:08;25.80;67.70
22456;DHT22;11395;53.204;6.502;2022-08-02T11:38:34;25.80;67.80
22456;DHT22;11395;53.204;6.502;2022-08-02T11:41:00;25.80;67.70
22456;DHT22;11395;53.204;6.502;2022-08-02T11:43:28;25.80;67.80
22456;DHT22;11395;53.204;6.502;2022-08-02T11:46:04;25.80;68.50
22456;DHT22;11395;53.204;6.502;2022-08-02T11:48:35;25.80;67.70
22456;DHT22;11395;53.204;6.502;2022-08-02T11:53:48;25.90;67.90
22456;DHT22;11395;53.204;6.502;2022-08-02T11:56:16;25.80;67.70
22456;DHT22;11395;53.204;6.502;2022-08-02T11:59:09;25.90;67.70
22456;DHT22;11395;53.204;6.502;2022-08-02T12:01:37;25.90;67.80
22456;DHT22;11395;53.204;6.502;2022-08-02T12:04:05;25.90;67.80
22456;DHT22;11395;53.204;6.502;2022-08-02T12:06:33;25.90;67.90
22456;DHT22;11395;53.204;6.502;2022-08-02T12:11:32;25.90;68.00
22456;DHT22;11395;53.204;6.502;2022-08-02T12:13:59;25.90;68.10
22456;DHT22;11395;53.204;6.502;2022-08-02T12:16:33;25.90;68.00
22456;DHT22;11395;53.204;6.502;2022-08-02T12:19:20;25.90;68.90
22456;DHT22;11395;53.204;6.502;2022-08-02T12:22:14;25.90;68.10
22456;DHT22;11395;53.204;6.502;2022-08-02T12:24:46;25.90;68.20
22456;DHT22;11395;53.204;6.502;2022-08-02T12:27:35;25.90;68.00
22456;DHT22;11395;53.204;6.502;2022-08-02T12:30:07;25.90;68.20
22456;DHT22;11395;53.204;6.502;2022-08-02T12:32:35;25.90;68.10
22456;DHT22;11395;53.204;6.502;2022-08-02T12:35:05;25.90;68.30
22456;DHT22;11395;53.204;6.502;2022-08-02T12:37:32;25.90;68.30
22456;DHT22;11395;53.204;6.502;2022-08-02T12:40:28;25.90;68.30
22456;DHT22;11395;53.204;6.502;2022-08-02T12:43:14;25.90;68.30
22456;DHT22;11395;53.204;6.502;2022-08-02T12:45:49;26.00;68.20
22456;DHT22;11395;53.204;6.502;2022-08-02T12:48:32;26.10;68.00
22456;DHT22;11395;53.204;6.502;2022-08-02T12:51:26;26.20;67.90
22456;DHT22;11395;53.204;6.502;2022-08-02T12:53:55;26.20;67.80
22456;DHT22;11395;53.204;6.502;2022-08-02T12:56:39;26.20;67.60
22456;DHT22;11395;53.204;6.502;2022-08-02T12:59:05;26.30;67.60
22456;DHT22;11395;53.204;6.502;2022-08-02T13:01:32;26.40;67.50
22456;DHT22;11395;53.204;6.502;2022-08-02T13:03:59;26.40;67.40
22456;DHT22;11395;53.204;6.502;2022-08-02T13:06:25;26.50;67.40
22456;DHT22;11395;53.204;6.502;2022-08-02T13:08:52;26.50;67.30
22456;DHT22;11395;53.204;6.502;2022-08-02T13:11:24;26.50;67.10
22456;DHT22;11395;53.204;6.502;2022-08-02T13:13:50;26.60;67.00
22456;DHT22;11395;53.204;6.502;2022-08-02T13:16:17;26.60;67.00
22456;DHT22;11395;53.204;6.502;2022-08-02T13:18:43;26.60;66.80
22456;DHT22;11395;53.204;6.502;2022-08-02T13:21:11;26.60;66.70
22456;DHT22;11395;53.204;6.502;2022-08-02T13:23:37;26.70;66.90
22456;DHT22;11395;53.204;6.502;2022-08-02T13:26:04;26.70;66.90
22456;DHT22;11395;53.204;6.502;2022-08-02T13:28:30;26.70;66.90
22456;DHT22;11395;53.204;6.502;2022-08-02T13:30:57;26.70;67.00
22456;DHT22;11395;53.204;6.502;2022-08-02T13:33:23;26.70;66.90
22456;DHT22;11395;53.204;6.502;2022-08-02T13:35:50;26.70;66.90
22456;DHT22;11395;53.204;6.502;2022-08-02T13:38:16;26.80;67.40
22456;DHT22;11395;53.204;6.502;2022-08-02T13:40:42;26.80;67.50
22456;DHT22;11395;53.204;6.502;2022-08-02T13:43:27;26.70;67.20
22456;DHT22;11395;53.204;6.502;2022-08-02T13:45:53;26.80;67.40
22456;DHT22;11395;53.204;6.502;2022-08-02T13:48:19;26.70;67.40
22456;DHT22;11395;53.204;6.502;2022-08-02T13:50:45;26.70;67.20
22456;DHT22;11395;53.204;6.502;2022-08-02T13:53:11;26.70;67.00
22456;DHT22;11395;53.204;6.502;2022-08-02T13:55:38;26.70;67.00
22456;DHT22;11395;53.204;6.502;2022-08-02T13:58:04;26.60;66.90
22456;DHT22;11395;53.204;6.502;2022-08-02T14:00:31;26.60;67.00
22456;DHT22;11395;53.204;6.502;2022-08-02T14:02:57;26.60;67.10
22456;DHT22;11395;53.204;6.502;2022-08-02T14:05:23;26.60;67.20
22456;DHT22;11395;53.204;6.502;2022-08-02T14:07:58;26.50;67.30
22456;DHT22;11395;53.204;6.502;2022-08-02T14:10:25;26.50;67.40
22456;DHT22;11395;53.204;6.502;2022-08-02T14:12:52;26.50;67.50
22456;DHT22;11395;53.204;6.502;2022-08-02T14:15:18;26.40;67.40
22456;DHT22;11395;53.204;6.502;2022-08-02T14:17:45;26.40;67.50
22456;DHT22;11395;53.204;6.502;2022-08-02T14:20:11;26.40;67.60
22456;DHT22;11395;53.204;6.502;2022-08-02T14:22:38;26.30;67.60
22456;DHT22;11395;53.204;6.502;2022-08-02T14:25:04;26.30;67.80
22456;DHT22;11395;53.204;6.502;2022-08-02T14:27:31;26.30;67.90
22456;DHT22;11395;53.204;6.502;2022-08-02T14:29:57;26.30;68.00
22456;DHT22;11395;53.204;6.502;2022-08-02T14:32:23;26.30;68.80
22456;DHT22;11395;53.204;6.502;2022-08-02T14:34:51;26.30;68.00
22456;DHT22;11395;53.204;6.502;2022-08-02T14:37:17;26.30;68.10
22456;DHT22;11395;53.204;6.502;2022-08-02T14:39:43;26.20;68.00
22456;DHT22;11395;53.204;6.502;2022-08-02T14:42:09;26.20;68.00
22456;DHT22;11395;53.204;6.502;2022-08-02T14:44:36;26.20;68.10
22456;DHT22;11395;53.204;6.502;2022-08-02T14:47:02;26.20;68.20
22456;DHT22;11395;53.204;6.502;2022-08-02T14:49:28;26.20;68.30
22456;DHT22;11395;53.204;6.502;2022-08-02T14:51:54;26.20;68.30
22456;DHT22;11395;53.204;6.502;2022-08-02T14:54:22;26.20;68.30
22456;DHT22;11395;53.204;6.502;2022-08-02T14:56:51;26.20;68.30
22456;DHT22;11395;53.204;6.502;2022-08-02T14:59:17;26.20;68.30
22456;DHT22;11395;53.204;6.502;2022-08-02T15:01:43;26.20;68.20
22456;DHT22;11395;53.204;6.502;2022-08-02T15:04:09;26.20;68.10
22456;DHT22;11395;53.204;6.502;2022-08-02T15:06:36;26.20;68.10
22456;DHT22;11395;53.204;6.502;2022-08-02T15:09:02;26.20;68.10
22456;DHT22;11395;53.204;6.502;2022-08-02T15:11:28;26.30;68.20
22456;DHT22;11395;53.204;6.502;2022-08-02T15:13:54;26.30;68.10
22456;DHT22;11395;53.204;6.502;2022-08-02T15:16:26;26.30;67.90
22456;DHT22;11395;53.204;6.502;2022-08-02T15:18:54;26.40;67.90
22456;DHT22;11395;53.204;6.502;2022-08-02T15:21:20;26.40;67.70
22456;DHT22;11395;53.204;6.502;2022-08-02T15:23:47;26.50;67.70
22456;DHT22;11395;53.204;6.502;2022-08-02T15:26:13;26.50;67.50
22456;DHT22;11395;53.204;6.502;2022-08-02T15:28:39;26.60;67.40
22456;DHT22;11395;53.204;6.502;2022-08-02T15:31:08;26.60;67.10
22456;DHT22;11395;53.204;6.502;2022-08-02T15:33:34;26.70;67.00
22456;DHT22;11395;53.204;6.502;2022-08-02T15:36:02;26.70;66.90
22456;DHT22;11395;53.204;6.502;2022-08-02T15:38:29;26.80;66.90
22456;DHT22;11395;53.204;6.502;2022-08-02T15:40:55;26.80;66.80
22456;DHT22;11395;53.204;6.502;2022-08-02T15:43:21;26.80;66.70
22456;DHT22;11395;53.204;6.502;2022-08-02T15:45:47;26.90;66.60
22456;DHT22;11395;53.204;6.502;2022-08-02T15:48:14;26.90;66.50
22456;DHT22;11395;53.204;6.502;2022-08-02T15:50:41;26.90;66.40
22456;DHT22;11395;53.204;6.502;2022-08-02T15:53:07;26.90;66.40
22456;DHT22;11395;53.204;6.502;2022-08-02T15:55:33;26.90;66.40
22456;DHT22;11395;53.204;6.502;2022-08-02T15:58:00;26.90;66.30
22456;DHT22;11395;53.204;6.502;2022-08-02T16:00:26;26.90;66.30
22456;DHT22;11395;53.204;6.502;2022-08-02T16:02:55;27.00;66.20
22456;DHT22;11395;53.204;6.502;2022-08-02T16:05:22;27.10;66.20
22456;DHT22;11395;53.204;6.502;2022-08-02T16:07:51;27.10;65.90
22456;DHT22;11395;53.204;6.502;2022-08-02T16:10:17;27.20;65.80
22456;DHT22;11395;53.204;6.502;2022-08-02T16:12:46;27.20;65.60
22456;DHT22;11395;53.204;6.502;2022-08-02T16:15:13;27.30;65.40
22456;DHT22;11395;53.204;6.502;2022-08-02T16:17:40;27.40;65.20
22456;DHT22;11395;53.204;6.502;2022-08-02T16:20:07;27.40;65.10
22456;DHT22;11395;53.204;6.502;2022-08-02T16:22:34;27.40;65.00
22456;DHT22;11395;53.204;6.502;2022-08-02T16:25:01;27.40;64.90